Tuam, Ireland
Current Conditions -  °F | °C
As of 5:00 PM on Thursday 27 Nov 2014 (Local Time) from EIKN Reporting Station
Scattered Clouds Scattered Clouds  
Wind Chill: 36°   Ceiling: Unl
Heat Index: 43°   Visibility: 6mi
Dew Point: 41°   Wind: 14mph
Humidity: 93%   Direction: 110°ESE
Pressure: 29.38"   Gusts: NA
Location:  53.52°N, 8.86°W
Report Text: EIKN 271600Z 11012KT 080V140 9999 SCT020 SCT047 06/05 Q0995 NOSIG
Loading
Personal Weather Stations






























Interactive Weather Map New forecast layout! Learn more

10-Day Weather Forecast

Advertisements
Track Severe Weather on mobile